createdAt,value
2022-11-08T00:02:06.261Z,1.47
2022-11-08T00:04:40.213Z,1.80
2022-11-08T00:07:32.038Z,1.97
2022-11-08T00:10:24.245Z,1.73
2022-11-08T00:13:15.121Z,1.77
2022-11-08T00:15:49.867Z,1.60
2022-11-08T00:18:23.139Z,1.60
2022-11-08T00:20:56.885Z,1.67
2022-11-08T00:23:30.565Z,1.93
2022-11-08T00:26:04.138Z,1.83
2022-11-08T00:28:38.628Z,1.50
2022-11-08T00:31:15.760Z,1.40
2022-11-08T00:33:49.282Z,1.80
2022-11-08T00:36:24.000Z,1.47
2022-11-08T00:38:57.790Z,1.47
2022-11-08T00:41:31.291Z,1.30
2022-11-08T00:44:05.751Z,1.60
2022-11-08T00:46:41.666Z,1.70
2022-11-08T00:49:16.227Z,1.67
2022-11-08T00:51:51.826Z,1.67
2022-11-08T00:54:25.782Z,1.30
2022-11-08T00:57:01.044Z,1.50
2022-11-08T00:59:34.382Z,1.30
2022-11-08T01:02:09.470Z,1.77
2022-11-08T01:04:44.221Z,1.80
2022-11-08T01:07:17.591Z,1.67
2022-11-08T01:09:50.997Z,1.60
2022-11-08T01:12:24.514Z,1.63
2022-11-08T01:14:57.922Z,1.50
2022-11-08T01:17:33.585Z,1.10
2022-11-08T01:20:13.416Z,1.47
2022-11-08T01:22:48.482Z,1.43
2022-11-08T01:25:22.052Z,1.47
2022-11-08T01:27:55.527Z,1.40
2022-11-08T01:30:33.945Z,1.30
2022-11-08T01:33:09.847Z,1.50
2022-11-08T01:35:47.167Z,1.23
2022-11-08T01:38:21.070Z,1.10
2022-11-08T01:40:56.594Z,1.30
2022-11-08T01:43:43.431Z,1.17
2022-11-08T01:46:50.199Z,1.40
2022-11-08T01:49:44.745Z,1.20
2022-11-08T01:52:29.058Z,1.30
2022-11-08T01:55:13.581Z,1.13
2022-11-08T01:57:55.830Z,1.40
2022-11-08T02:00:32.967Z,1.23
2022-11-08T02:03:11.311Z,1.23
2022-11-08T02:05:47.195Z,1.33
2022-11-08T02:08:28.550Z,1.13
2022-11-08T02:11:03.985Z,1.23
2022-11-08T02:13:42.009Z,1.30
2022-11-08T02:16:17.708Z,1.60
2022-11-08T02:18:51.545Z,1.33
2022-11-08T02:21:36.002Z,1.13
2022-11-08T02:24:14.284Z,1.17
2022-11-08T02:26:48.416Z,1.33
2022-11-08T02:29:30.157Z,1.30
2022-11-08T02:32:05.682Z,1.10
2022-11-08T02:34:45.212Z,1.10
2022-11-08T02:37:22.170Z,1.60
2022-11-08T02:39:58.511Z,1.30
2022-11-08T02:42:32.077Z,1.20
2022-11-08T02:45:07.684Z,1.00
2022-11-08T02:47:41.428Z,1.00
2022-11-08T02:50:28.979Z,1.43
2022-11-08T02:53:05.057Z,1.10
2022-11-08T02:55:39.938Z,1.33
2022-11-08T02:58:13.800Z,1.00
2022-11-08T03:00:48.653Z,1.17
2022-11-08T03:03:22.149Z,1.17
2022-11-08T03:05:58.250Z,1.00
2022-11-08T03:08:31.761Z,1.10
2022-11-08T03:11:08.062Z,1.20
2022-11-08T03:13:41.567Z,0.97
2022-11-08T03:16:15.233Z,1.10
2022-11-08T03:18:48.633Z,1.10
2022-11-08T03:21:22.187Z,1.13
2022-11-08T03:23:55.730Z,1.10
2022-11-08T03:26:32.218Z,0.90
2022-11-08T03:29:08.501Z,1.00
2022-11-08T03:31:41.816Z,1.00
2022-11-08T03:34:15.363Z,1.13
2022-11-08T03:36:48.946Z,1.17
2022-11-08T03:39:23.055Z,1.20
2022-11-08T03:41:59.631Z,1.10
2022-11-08T03:44:36.836Z,1.07
2022-11-08T03:47:11.786Z,0.90
2022-11-08T03:49:45.120Z,1.03
2022-11-08T03:52:18.421Z,0.83
2022-11-08T03:54:51.922Z,1.07
2022-11-08T03:57:28.005Z,1.07
2022-11-08T04:00:01.687Z,1.10
2022-11-08T04:02:35.277Z,0.80
2022-11-08T04:05:10.635Z,1.10
2022-11-08T04:07:44.410Z,1.03
2022-11-08T04:10:19.001Z,0.90
2022-11-08T04:13:11.221Z,1.13
2022-11-08T04:15:44.870Z,0.80
2022-11-08T04:18:41.135Z,0.97
2022-11-08T04:21:22.802Z,1.10
2022-11-08T04:23:56.559Z,1.00
2022-11-08T04:26:29.869Z,0.90
2022-11-08T04:29:04.990Z,0.90
2022-11-08T04:31:39.187Z,0.93
2022-11-08T04:34:12.765Z,0.97
2022-11-08T04:36:46.142Z,1.07
2022-11-08T04:39:20.312Z,1.10
2022-11-08T04:41:57.697Z,1.00
2022-11-08T04:44:35.794Z,1.10
2022-11-08T04:47:10.133Z,0.97
2022-11-08T04:49:43.791Z,1.27
2022-11-08T04:52:17.337Z,1.10
2022-11-08T04:54:51.101Z,1.20
2022-11-08T04:57:25.335Z,1.37
2022-11-08T05:00:00.287Z,1.13
2022-11-08T05:02:33.746Z,0.97
2022-11-08T05:05:08.839Z,1.13
2022-11-08T05:07:42.387Z,1.13
2022-11-08T05:10:16.208Z,1.00
2022-11-08T05:12:49.500Z,0.97
2022-11-08T05:15:26.520Z,1.20
2022-11-08T05:17:59.910Z,1.10
2022-11-08T05:20:51.305Z,0.90
2022-11-08T05:23:25.090Z,1.27
2022-11-08T05:25:59.473Z,1.27
2022-11-08T05:28:33.341Z,1.10
2022-11-08T05:31:08.923Z,1.27
2022-11-08T05:33:43.397Z,1.20
2022-11-08T05:36:17.579Z,1.20
2022-11-08T05:38:51.170Z,1.37
2022-11-08T05:41:26.392Z,0.90
2022-11-08T05:43:59.947Z,1.30
2022-11-08T05:46:35.338Z,1.00
2022-11-08T05:49:08.607Z,1.10
2022-11-08T05:51:42.630Z,1.10
2022-11-08T05:54:16.216Z,1.00
2022-11-08T05:56:49.643Z,1.27
2022-11-08T05:59:23.548Z,1.30
2022-11-08T06:01:58.517Z,1.07
2022-11-08T06:04:35.775Z,1.40
2022-11-08T06:07:09.138Z,1.20
2022-11-08T06:09:44.663Z,1.10
2022-11-08T06:12:18.509Z,1.50
2022-11-08T06:14:52.152Z,1.23
2022-11-08T06:17:30.111Z,1.20
2022-11-08T06:20:04.700Z,1.40
2022-11-08T06:22:39.013Z,1.13
2022-11-08T06:25:12.679Z,1.10
2022-11-08T06:27:46.187Z,1.20
2022-11-08T06:30:20.911Z,1.10
2022-11-08T06:32:55.612Z,1.10
2022-11-08T06:35:28.940Z,1.13
2022-11-08T06:38:08.174Z,0.90
2022-11-08T06:40:43.100Z,1.20
2022-11-08T06:43:19.623Z,1.00
2022-11-08T06:45:53.677Z,1.20
2022-11-08T06:48:34.029Z,1.40
2022-11-08T06:51:09.149Z,0.80
2022-11-08T06:53:42.981Z,1.00
2022-11-08T06:56:16.518Z,0.80
2022-11-08T06:58:52.197Z,1.17
2022-11-08T07:01:25.698Z,1.00
2022-11-08T07:04:01.603Z,1.07
2022-11-08T07:06:35.201Z,0.80
2022-11-08T07:09:09.293Z,1.00
2022-11-08T07:11:42.642Z,0.90
2022-11-08T07:14:17.576Z,0.90
2022-11-08T07:16:50.972Z,0.90
2022-11-08T07:19:25.737Z,0.80
2022-11-08T07:21:59.028Z,0.70
2022-11-08T07:24:32.487Z,1.00
2022-11-08T07:27:07.429Z,0.90
2022-11-08T07:29:41.726Z,0.70
2022-11-08T07:32:15.410Z,0.83
2022-11-08T07:34:50.339Z,0.90
2022-11-08T07:37:24.099Z,0.87
2022-11-08T07:39:59.176Z,0.87
2022-11-08T07:42:50.020Z,0.97
2022-11-08T07:45:26.843Z,1.00
2022-11-08T07:48:03.363Z,1.00
2022-11-08T07:50:41.016Z,0.90
2022-11-08T07:53:14.848Z,0.90
2022-11-08T07:55:49.124Z,0.90
2022-11-08T07:58:22.720Z,1.00
2022-11-08T08:01:01.756Z,1.00
2022-11-08T08:03:35.528Z,0.80
2022-11-08T08:06:10.369Z,1.10
2022-11-08T08:08:43.824Z,0.77
2022-11-08T08:11:17.515Z,0.60
2022-11-08T08:13:52.828Z,0.93
2022-11-08T08:19:54.242Z,0.90
2022-11-08T08:22:37.885Z,0.70
2022-11-08T08:36:59.199Z,0.90
2022-11-08T08:40:08.321Z,0.73
2022-11-08T08:42:50.181Z,0.73
2022-11-08T08:46:25.749Z,0.77
2022-11-08T08:49:05.073Z,0.60
2022-11-08T08:51:38.870Z,1.10
2022-11-08T08:54:15.003Z,0.80
2022-11-08T08:56:50.169Z,0.77
2022-11-08T09:02:26.094Z,0.70
2022-11-08T09:05:01.777Z,0.80
2022-11-08T09:07:35.666Z,1.03
2022-11-08T09:10:11.573Z,0.70
2022-11-08T09:12:46.640Z,0.80
2022-11-08T09:15:40.901Z,0.90
2022-11-08T09:18:14.388Z,0.97
2022-11-08T09:20:48.285Z,0.80
2022-11-08T09:23:21.798Z,0.90
2022-11-08T09:25:59.586Z,0.97
2022-11-08T09:28:38.841Z,0.83
2022-11-08T09:31:50.412Z,1.13
2022-11-08T09:34:24.422Z,1.03
2022-11-08T09:36:58.317Z,0.70
2022-11-08T09:39:32.007Z,0.90
2022-11-08T09:42:52.229Z,0.87
2022-11-08T09:45:42.553Z,0.80
2022-11-08T09:48:30.982Z,0.80
2022-11-08T09:51:13.917Z,1.27
2022-11-08T09:53:56.337Z,0.97
2022-11-08T09:56:33.038Z,1.00
2022-11-08T09:59:27.188Z,1.20
2022-11-08T10:02:18.277Z,1.00
2022-11-08T10:04:59.151Z,0.80
2022-11-08T10:07:41.595Z,1.40
2022-11-08T10:10:59.482Z,0.90
2022-11-08T10:14:08.468Z,0.90
2022-11-08T10:16:55.228Z,0.80
2022-11-08T10:20:06.711Z,0.80
2022-11-08T10:22:53.772Z,0.90
2022-11-08T10:25:40.987Z,0.90
2022-11-08T10:28:23.343Z,0.97
2022-11-08T10:30:59.236Z,0.90
2022-11-08T10:33:40.237Z,0.87
2022-11-08T10:36:33.200Z,0.80
2022-11-08T10:39:26.855Z,0.90
2022-11-08T10:42:12.611Z,0.90
2022-11-08T10:44:46.954Z,0.97
2022-11-08T10:47:37.361Z,1.00
2022-11-08T10:50:18.711Z,0.97
2022-11-08T10:53:02.408Z,0.80
2022-11-08T10:55:38.899Z,0.93
2022-11-08T10:58:33.525Z,1.10
2022-11-08T11:01:22.871Z,1.00
2022-11-08T11:04:03.692Z,1.13
2022-11-08T11:06:51.107Z,1.03
2022-11-08T11:09:33.087Z,0.90
2022-11-08T11:12:13.951Z,0.90
2022-11-08T11:15:00.784Z,0.80
2022-11-08T11:17:40.220Z,1.30
2022-11-08T11:20:26.311Z,1.07
2022-11-08T11:23:19.028Z,1.07
2022-11-08T11:25:58.955Z,1.03
2022-11-08T11:28:37.846Z,0.90
2022-11-08T11:31:18.381Z,0.80
2022-11-08T11:33:59.462Z,0.93
2022-11-08T11:36:35.954Z,1.13
2022-11-08T11:39:19.971Z,0.90
2022-11-08T11:42:24.054Z,0.70
2022-11-08T11:45:15.534Z,0.97
2022-11-08T11:47:57.355Z,1.20
2022-11-08T11:50:46.696Z,1.00
2022-11-08T11:53:24.827Z,0.90
2022-11-08T11:56:47.169Z,0.93
2022-11-08T11:59:58.066Z,0.97
2022-11-08T12:03:27.194Z,1.03
2022-11-08T12:06:19.163Z,1.00
2022-11-08T12:09:23.380Z,1.00
2022-11-08T12:12:19.533Z,1.20
2022-11-08T12:15:03.548Z,1.10
2022-11-08T12:18:41.071Z,1.00
2022-11-08T12:21:27.299Z,1.00
2022-11-08T12:24:47.647Z,0.90
2022-11-08T12:27:45.699Z,1.20
2022-11-08T12:30:26.625Z,0.90
2022-11-08T12:33:31.540Z,1.20
2022-11-08T12:36:53.582Z,1.10
2022-11-08T12:39:39.060Z,1.13
2022-11-08T12:43:09.054Z,1.13
2022-11-08T12:46:08.872Z,1.07
2022-11-08T12:49:26.116Z,1.00
2022-11-08T12:52:21.856Z,0.80
2022-11-08T12:55:03.472Z,1.00
2022-11-08T12:57:44.790Z,1.00
2022-11-08T13:00:33.300Z,1.17
2022-11-08T13:04:06.651Z,0.83
2022-11-08T13:06:52.524Z,1.07
2022-11-08T13:09:40.851Z,1.00
2022-11-08T13:12:57.043Z,1.33
2022-11-08T13:15:31.576Z,0.87
2022-11-08T13:18:34.910Z,1.07
2022-11-08T13:21:46.048Z,0.90
2022-11-08T13:24:44.505Z,1.17
2022-11-08T13:27:43.203Z,1.10
2022-11-08T13:30:41.155Z,1.03
2022-11-08T13:33:36.313Z,0.97
2022-11-08T13:36:35.138Z,0.97
2022-11-08T13:40:06.396Z,1.00
2022-11-08T13:43:14.987Z,1.10
2022-11-08T13:46:20.277Z,1.00
2022-11-08T13:49:19.335Z,0.90
2022-11-08T13:55:52.513Z,0.80
2022-11-08T13:58:39.488Z,1.30
2022-11-08T14:01:59.393Z,1.10
2022-11-08T14:04:41.982Z,1.17
2022-11-08T14:07:33.578Z,1.40
2022-11-08T14:13:26.345Z,1.10
2022-11-08T14:16:10.341Z,1.20
2022-11-08T14:18:45.319Z,1.20
2022-11-08T14:21:25.808Z,1.20
2022-11-08T14:24:10.292Z,1.10
2022-11-08T14:26:50.870Z,1.07
2022-11-08T14:29:33.654Z,0.90
2022-11-08T14:32:20.421Z,1.00
2022-11-08T14:35:14.187Z,1.17
2022-11-08T14:37:56.408Z,1.10
2022-11-08T14:40:33.598Z,0.90
2022-11-08T14:43:14.184Z,0.90
2022-11-08T14:45:50.423Z,0.93
2022-11-08T14:48:47.581Z,1.10
2022-11-08T14:51:22.019Z,1.20
2022-11-08T14:54:25.307Z,0.97
2022-11-08T14:57:14.125Z,1.40
2022-11-08T14:59:56.237Z,1.17
2022-11-08T15:02:31.339Z,1.10
2022-11-08T15:09:56.596Z,1.10
2022-11-08T15:16:14.372Z,1.00
2022-11-08T15:19:45.283Z,1.30
2022-11-08T15:22:40.654Z,1.10
2022-11-08T15:25:39.060Z,1.07
2022-11-08T15:28:26.103Z,1.20
2022-11-08T15:31:12.270Z,1.27
2022-11-08T15:33:53.325Z,1.00
2022-11-08T15:36:52.146Z,0.97
2022-11-08T15:39:33.612Z,1.10
2022-11-08T15:42:18.787Z,1.13
2022-11-08T15:45:11.963Z,1.10
2022-11-08T15:47:50.572Z,1.20
2022-11-08T15:50:36.690Z,1.20
2022-11-08T15:53:11.504Z,1.17
2022-11-08T15:55:53.670Z,1.40
2022-11-08T15:58:39.790Z,1.00
2022-11-08T16:01:20.976Z,1.03
2022-11-08T16:03:58.279Z,1.27
2022-11-08T16:06:41.258Z,1.30
2022-11-08T16:09:21.175Z,1.30
2022-11-08T16:11:55.222Z,0.90
2022-11-08T16:14:54.802Z,1.30
2022-11-08T16:17:28.400Z,1.13
2022-11-08T16:20:28.606Z,1.73
2022-11-08T16:23:25.409Z,1.70
2022-11-08T16:26:31.519Z,1.20
2022-11-08T16:29:30.588Z,1.37
2022-11-08T16:32:21.608Z,1.10
2022-11-08T16:34:57.014Z,1.07
2022-11-08T16:37:30.507Z,1.00
2022-11-08T16:40:15.971Z,1.20
2022-11-08T16:42:52.271Z,1.13
2022-11-08T16:45:58.394Z,1.40
2022-11-08T16:48:29.355Z,1.30
2022-11-08T16:51:08.113Z,1.27
2022-11-08T16:53:42.166Z,1.40
2022-11-08T16:56:20.311Z,1.40
2022-11-08T16:58:55.392Z,1.20
2022-11-08T17:01:34.907Z,1.00
2022-11-08T17:04:10.140Z,1.40
2022-11-08T17:06:44.159Z,1.47
2022-11-08T17:09:20.513Z,1.30
2022-11-08T17:11:53.921Z,1.30
2022-11-08T17:14:30.108Z,1.30
2022-11-08T17:17:03.692Z,1.20
2022-11-08T17:19:38.748Z,1.20
2022-11-08T17:22:12.441Z,1.17
2022-11-08T17:24:48.159Z,1.10
2022-11-08T17:27:23.924Z,1.37
2022-11-08T17:29:59.012Z,1.20
2022-11-08T17:32:33.027Z,1.23
2022-11-08T17:35:11.174Z,1.43
2022-11-08T17:37:44.650Z,1.33
2022-11-08T17:40:18.654Z,1.20
2022-11-08T17:42:52.485Z,1.20
2022-11-08T17:45:29.661Z,1.47
2022-11-08T17:48:03.724Z,1.40
2022-11-08T17:50:40.719Z,1.30
2022-11-08T17:53:17.721Z,1.27
2022-11-08T17:55:56.067Z,1.37
2022-11-08T17:58:33.625Z,1.17
2022-11-08T18:01:10.156Z,1.03
2022-11-08T18:03:43.915Z,1.27
2022-11-08T18:06:19.105Z,1.20
2022-11-08T18:08:52.624Z,1.20
2022-11-08T18:11:26.416Z,1.43
2022-11-08T18:14:00.311Z,1.07
2022-11-08T18:16:34.324Z,1.73
2022-11-08T18:19:08.376Z,1.03
2022-11-08T18:21:44.165Z,1.30
2022-11-08T18:24:18.700Z,1.20
2022-11-08T18:26:52.451Z,1.07
2022-11-08T18:29:26.964Z,1.10
2022-11-08T18:32:02.064Z,0.90
2022-11-08T18:34:36.120Z,1.20
2022-11-08T18:37:11.657Z,1.30
2022-11-08T18:39:45.286Z,1.30
2022-11-08T18:42:19.333Z,1.27
2022-11-08T18:44:55.444Z,0.90
2022-11-08T18:47:29.151Z,1.20
2022-11-08T18:50:02.518Z,1.17
2022-11-08T18:52:38.912Z,1.17
2022-11-08T18:55:13.415Z,1.43
2022-11-08T18:57:47.494Z,1.20
2022-11-08T19:00:21.689Z,1.30
2022-11-08T19:02:56.286Z,1.33
2022-11-08T19:05:30.290Z,1.40
2022-11-08T19:08:05.813Z,1.20
2022-11-08T19:10:39.778Z,1.13
2022-11-08T19:13:13.604Z,1.40
2022-11-08T19:15:56.107Z,1.30
2022-11-08T19:18:32.198Z,1.30
2022-11-08T19:21:14.569Z,1.20
2022-11-08T19:23:51.943Z,1.17
2022-11-08T19:26:28.735Z,1.30
2022-11-08T19:29:03.298Z,1.27
2022-11-08T19:31:39.279Z,1.10
2022-11-08T19:34:14.027Z,1.33
2022-11-08T19:36:52.669Z,1.30
2022-11-08T19:39:30.774Z,1.20
2022-11-08T19:42:04.290Z,1.20
2022-11-08T19:44:38.226Z,1.00
2022-11-08T19:47:12.170Z,1.27
2022-11-08T19:49:46.175Z,1.20
2022-11-08T19:52:19.819Z,1.07
2022-11-08T19:54:55.149Z,1.10
2022-11-08T19:57:30.871Z,1.10
2022-11-08T20:00:06.308Z,1.50
2022-11-08T20:02:40.120Z,1.30
2022-11-08T20:05:13.645Z,1.20
2022-11-08T20:07:47.804Z,1.20
2022-11-08T20:10:23.053Z,1.17
2022-11-08T20:12:56.902Z,0.80
2022-11-08T20:15:34.072Z,1.10
2022-11-08T20:18:07.750Z,1.20
2022-11-08T20:20:42.985Z,1.30
2022-11-08T20:23:18.052Z,1.07
2022-11-08T20:25:53.130Z,1.40
2022-11-08T20:28:26.668Z,1.50
2022-11-08T20:31:05.370Z,1.20
2022-11-08T20:33:40.653Z,0.93
2022-11-08T20:36:16.625Z,1.00
2022-11-08T20:38:51.231Z,1.20
2022-11-08T20:41:26.896Z,0.93
2022-11-08T20:44:00.852Z,1.30
2022-11-08T20:46:34.860Z,1.20
2022-11-08T20:49:10.091Z,1.13
2022-11-08T20:51:43.862Z,1.50
2022-11-08T20:54:24.022Z,1.10
2022-11-08T20:56:59.176Z,0.90
2022-11-08T20:59:32.856Z,0.90
2022-11-08T21:02:06.424Z,1.07
2022-11-08T21:04:40.600Z,1.00
2022-11-08T21:10:40.083Z,1.33
2022-11-08T21:13:03.883Z,1.13
2022-11-08T21:15:37.648Z,1.00
2022-11-08T21:18:11.102Z,1.17
2022-11-08T21:20:45.530Z,1.13
2022-11-08T21:23:21.089Z,1.23
2022-11-08T21:25:55.229Z,1.37
2022-11-08T21:28:30.473Z,1.20
2022-11-08T21:31:05.195Z,1.20
2022-11-08T21:33:39.270Z,1.20
2022-11-08T21:36:17.427Z,1.17
2022-11-08T21:38:51.038Z,1.13
2022-11-08T21:41:24.829Z,1.30
2022-11-08T21:44:00.845Z,1.10
2022-11-08T21:46:34.947Z,1.03
2022-11-08T21:49:10.731Z,1.27
2022-11-08T21:51:44.122Z,1.30
2022-11-08T21:54:17.833Z,1.10
2022-11-08T21:56:51.714Z,1.03
2022-11-08T21:59:26.816Z,1.37
2022-11-08T22:02:00.306Z,1.10
2022-11-08T22:04:34.431Z,1.13
2022-11-08T22:07:08.174Z,0.90
2022-11-08T22:09:41.992Z,1.07
2022-11-08T22:12:15.963Z,1.47
2022-11-08T22:14:51.545Z,1.13
2022-11-08T22:17:25.440Z,1.27
2022-11-08T22:19:58.991Z,1.23
2022-11-08T22:22:33.755Z,1.03
2022-11-08T22:25:08.491Z,1.17
2022-11-08T22:27:41.989Z,1.27
2022-11-08T22:30:17.228Z,1.10
2022-11-08T22:32:50.789Z,1.10
2022-11-08T22:35:24.777Z,0.80
2022-11-08T22:37:58.788Z,1.13
2022-11-08T22:40:32.909Z,0.90
2022-11-08T22:43:06.581Z,1.03
2022-11-08T22:45:43.777Z,0.90
2022-11-08T22:48:17.596Z,1.03
2022-11-08T22:50:51.659Z,0.90
2022-11-08T22:53:25.217Z,1.00
2022-11-08T22:56:04.529Z,1.10
2022-11-08T22:58:42.022Z,1.00
2022-11-08T23:01:18.475Z,1.10
2022-11-08T23:03:53.518Z,0.97
2022-11-08T23:06:27.165Z,1.10
2022-11-08T23:09:00.775Z,1.10
2022-11-08T23:11:51.888Z,1.00
2022-11-08T23:14:44.932Z,1.10
2022-11-08T23:17:19.959Z,0.87
2022-11-08T23:20:11.160Z,1.03
2022-11-08T23:23:01.780Z,1.07
2022-11-08T23:25:36.559Z,1.10
2022-11-08T23:28:27.585Z,1.00
2022-11-08T23:31:21.252Z,0.90
2022-11-08T23:33:56.115Z,1.00
2022-11-08T23:36:29.924Z,0.90
2022-11-08T23:39:03.358Z,1.10
2022-11-08T23:41:54.072Z,1.00
2022-11-08T23:44:28.953Z,1.00
2022-11-08T23:47:02.972Z,0.70
2022-11-08T23:49:38.127Z,0.97
2022-11-08T23:52:11.592Z,0.90
2022-11-08T23:54:45.172Z,0.93
2022-11-08T23:57:19.846Z,0.97
2022-11-08T23:59:53.403Z,0.93
